sensor_id;sensor_type;location;lat;lon;timestamp;pressure;altitude;pressure_sealevel;temperature;humidity
63190;BME280;49286;44.460;26.114;2023-05-13T00:00:21;101093.59;;;10.24;100.00
63190;BME280;49286;44.460;26.114;2023-05-13T00:02:47;101052.91;;;9.88;100.00
63190;BME280;49286;44.460;26.114;2023-05-13T00:05:12;101139.19;;;10.32;100.00
63190;BME280;49286;44.460;26.114;2023-05-13T00:07:38;101167.38;;;10.48;100.00
63190;BME280;49286;44.460;26.114;2023-05-13T00:10:06;101167.13;;;10.28;100.00
63190;BME280;49286;44.460;26.114;2023-05-13T00:12:31;101010.31;;;9.39;100.00
63190;BME280;49286;44.460;26.114;2023-05-13T00:14:57;101065.22;;;9.92;100.00
63190;BME280;49286;44.460;26.114;2023-05-13T00:17:22;101091.72;;;10.15;100.00
63190;BME280;49286;44.460;26.114;2023-05-13T00:19:48;101126.84;;;10.26;100.00
63190;BME280;49286;44.460;26.114;2023-05-13T00:22:13;101057.16;;;9.78;100.00
63190;BME280;49286;44.460;26.114;2023-05-13T00:24:39;101016.94;;;9.14;100.00
63190;BME280;49286;44.460;26.114;2023-05-13T00:27:04;101046.59;;;9.13;100.00
63190;BME280;49286;44.460;26.114;2023-05-13T00:29:30;101145.38;;;9.75;100.00
63190;BME280;49286;44.460;26.114;2023-05-13T00:31:55;101125.38;;;9.81;100.00
63190;BME280;49286;44.460;26.114;2023-05-13T00:34:21;101001.56;;;8.79;100.00
63190;BME280;49286;44.460;26.114;2023-05-13T00:36:46;101098.97;;;9.69;100.00
63190;BME280;49286;44.460;26.114;2023-05-13T00:39:12;101018.28;;;9.45;100.00
63190;BME280;49286;44.460;26.114;2023-05-13T00:41:37;101137.59;;;9.82;100.00
63190;BME280;49286;44.460;26.114;2023-05-13T00:44:03;101012.09;;;9.40;100.00
63190;BME280;49286;44.460;26.114;2023-05-13T00:46:32;101151.22;;;10.16;100.00
63190;BME280;49286;44.460;26.114;2023-05-13T00:48:58;101151.81;;;9.98;100.00
63190;BME280;49286;44.460;26.114;2023-05-13T00:51:24;101057.75;;;9.56;100.00
63190;BME280;49286;44.460;26.114;2023-05-13T00:53:50;101002.47;;;9.37;100.00
63190;BME280;49286;44.460;26.114;2023-05-13T00:56:21;101039.81;;;9.25;100.00
63190;BME280;49286;44.460;26.114;2023-05-13T00:58:47;101110.28;;;9.66;100.00
63190;BME280;49286;44.460;26.114;2023-05-13T01:11:50;101056.38;;;9.23;100.00
63190;BME280;49286;44.460;26.114;2023-05-13T01:14:31;101157.59;;;9.76;100.00
63190;BME280;49286;44.460;26.114;2023-05-13T01:17:01;101012.59;;;8.62;100.00
63190;BME280;49286;44.460;26.114;2023-05-13T01:19:43;101173.28;;;9.72;100.00
63190;BME280;49286;44.460;26.114;2023-05-13T01:22:08;101128.69;;;9.16;100.00
63190;BME280;49286;44.460;26.114;2023-05-13T01:24:35;101066.34;;;8.92;100.00
63190;BME280;49286;44.460;26.114;2023-05-13T01:27:01;101049.84;;;8.98;100.00
63190;BME280;49286;44.460;26.114;2023-05-13T01:29:27;101142.59;;;9.65;100.00
63190;BME280;49286;44.460;26.114;2023-05-13T01:31:54;101140.75;;;9.58;100.00
63190;BME280;49286;44.460;26.114;2023-05-13T01:34:21;100993.75;;;8.82;100.00
63190;BME280;49286;44.460;26.114;2023-05-13T01:36:48;101115.34;;;9.54;100.00
63190;BME280;49286;44.460;26.114;2023-05-13T01:39:14;101004.56;;;8.50;100.00
63190;BME280;49286;44.460;26.114;2023-05-13T01:41:41;101013.53;;;8.20;100.00
63190;BME280;49286;44.460;26.114;2023-05-13T01:44:06;100965.03;;;7.89;100.00
63190;BME280;49286;44.460;26.114;2023-05-13T01:46:32;101016.09;;;8.17;100.00
63190;BME280;49286;44.460;26.114;2023-05-13T01:48:58;101100.69;;;8.63;100.00
63190;BME280;49286;44.460;26.114;2023-05-13T01:51:23;101134.19;;;8.81;100.00
63190;BME280;49286;44.460;26.114;2023-05-13T01:53:49;101132.28;;;8.74;100.00
63190;BME280;49286;44.460;26.114;2023-05-13T01:56:14;101023.03;;;8.15;100.00
63190;BME280;49286;44.460;26.114;2023-05-13T01:58:39;101136.00;;;8.87;100.00
63190;BME280;49286;44.460;26.114;2023-05-13T02:01:05;101120.69;;;8.60;100.00
63190;BME280;49286;44.460;26.114;2023-05-13T02:03:31;101134.03;;;8.74;100.00
63190;BME280;49286;44.460;26.114;2023-05-13T02:05:56;101119.81;;;8.59;100.00
63190;BME280;49286;44.460;26.114;2023-05-13T02:08:22;101145.28;;;8.70;100.00
63190;BME280;49286;44.460;26.114;2023-05-13T02:10:56;101064.91;;;8.18;100.00
63190;BME280;49286;44.460;26.114;2023-05-13T02:13:22;101011.09;;;7.86;100.00
63190;BME280;49286;44.460;26.114;2023-05-13T02:15:47;101124.78;;;8.47;100.00
63190;BME280;49286;44.460;26.114;2023-05-13T02:18:13;101021.59;;;7.89;100.00
63190;BME280;49286;44.460;26.114;2023-05-13T02:20:39;101136.75;;;8.80;100.00
63190;BME280;49286;44.460;26.114;2023-05-13T02:23:05;101010.06;;;8.21;100.00
63190;BME280;49286;44.460;26.114;2023-05-13T02:25:31;101034.53;;;8.25;100.00
63190;BME280;49286;44.460;26.114;2023-05-13T02:27:56;101158.72;;;8.88;100.00
63190;BME280;49286;44.460;26.114;2023-05-13T02:30:22;100989.84;;;7.69;100.00
63190;BME280;49286;44.460;26.114;2023-05-13T02:32:51;101165.97;;;9.03;100.00
63190;BME280;49286;44.460;26.114;2023-05-13T02:35:17;101050.53;;;8.40;100.00
63190;BME280;49286;44.460;26.114;2023-05-13T02:37:43;101010.09;;;8.23;100.00
63190;BME280;49286;44.460;26.114;2023-05-13T02:40:09;101037.16;;;7.82;100.00
63190;BME280;49286;44.460;26.114;2023-05-13T02:42:35;101133.94;;;8.28;100.00
63190;BME280;49286;44.460;26.114;2023-05-13T02:45:00;101166.63;;;8.45;100.00
63190;BME280;49286;44.460;26.114;2023-05-13T02:47:26;101028.00;;;7.62;100.00
63190;BME280;49286;44.460;26.114;2023-05-13T02:49:53;101033.44;;;7.71;100.00
63190;BME280;49286;44.460;26.114;2023-05-13T02:52:18;101046.19;;;7.97;100.00
63190;BME280;49286;44.460;26.114;2023-05-13T02:54:44;101034.84;;;7.55;100.00
63190;BME280;49286;44.460;26.114;2023-05-13T02:57:09;101053.25;;;7.61;100.00
63190;BME280;49286;44.460;26.114;2023-05-13T02:59:35;101168.59;;;8.18;100.00
63190;BME280;49286;44.460;26.114;2023-05-13T03:02:00;101072.53;;;7.67;100.00
63190;BME280;49286;44.460;26.114;2023-05-13T03:04:25;101165.03;;;8.14;100.00
63190;BME280;49286;44.460;26.114;2023-05-13T03:06:51;101043.69;;;7.24;100.00
63190;BME280;49286;44.460;26.114;2023-05-13T03:09:17;101140.81;;;7.83;100.00
63190;BME280;49286;44.460;26.114;2023-05-13T03:11:42;101037.50;;;7.21;100.00
63190;BME280;49286;44.460;26.114;2023-05-13T03:14:08;101168.19;;;7.99;100.00
63190;BME280;49286;44.460;26.114;2023-05-13T03:16:33;101192.06;;;8.15;100.00
63190;BME280;49286;44.460;26.114;2023-05-13T03:18:59;101073.78;;;7.46;100.00
63190;BME280;49286;44.460;26.114;2023-05-13T03:21:24;101073.78;;;7.45;100.00
63190;BME280;49286;44.460;26.114;2023-05-13T03:23:50;101075.75;;;7.55;100.00
63190;BME280;49286;44.460;26.114;2023-05-13T03:26:15;101145.59;;;8.01;100.00
63190;BME280;49286;44.460;26.114;2023-05-13T03:28:40;101209.88;;;8.31;100.00
63190;BME280;49286;44.460;26.114;2023-05-13T03:31:06;101066.00;;;7.48;100.00
63190;BME280;49286;44.460;26.114;2023-05-13T03:33:31;101194.06;;;8.27;100.00
63190;BME280;49286;44.460;26.114;2023-05-13T03:35:57;101082.00;;;7.61;100.00
63190;BME280;49286;44.460;26.114;2023-05-13T03:38:22;101174.09;;;8.30;100.00
63190;BME280;49286;44.460;26.114;2023-05-13T03:40:48;101171.28;;;8.21;100.00
63190;BME280;49286;44.460;26.114;2023-05-13T03:43:13;101202.13;;;8.37;100.00
63190;BME280;49286;44.460;26.114;2023-05-13T03:45:39;101173.88;;;8.19;100.00
63190;BME280;49286;44.460;26.114;2023-05-13T03:48:05;101207.41;;;8.39;100.00
63190;BME280;49286;44.460;26.114;2023-05-13T03:50:30;101209.97;;;8.36;100.00
63190;BME280;49286;44.460;26.114;2023-05-13T03:52:56;101194.66;;;8.54;100.00
63190;BME280;49286;44.460;26.114;2023-05-13T03:55:22;101189.44;;;8.54;100.00
63190;BME280;49286;44.460;26.114;2023-05-13T03:57:48;101220.63;;;8.86;100.00
63190;BME280;49286;44.460;26.114;2023-05-13T04:00:14;101210.34;;;8.95;100.00
63190;BME280;49286;44.460;26.114;2023-05-13T04:02:40;101198.59;;;8.75;100.00
63190;BME280;49286;44.460;26.114;2023-05-13T04:05:05;101217.28;;;8.93;100.00
63190;BME280;49286;44.460;26.114;2023-05-13T04:07:31;101245.72;;;8.76;100.00
63190;BME280;49286;44.460;26.114;2023-05-13T04:09:57;101136.50;;;8.25;100.00
63190;BME280;49286;44.460;26.114;2023-05-13T04:12:22;101253.69;;;8.82;100.00
63190;BME280;49286;44.460;26.114;2023-05-13T04:14:48;101268.38;;;9.18;100.00
63190;BME280;49286;44.460;26.114;2023-05-13T04:17:13;101271.66;;;9.08;100.00
63190;BME280;49286;44.460;26.114;2023-05-13T04:19:39;101200.41;;;8.79;100.00
63190;BME280;49286;44.460;26.114;2023-05-13T04:22:04;101143.16;;;8.50;100.00
63190;BME280;49286;44.460;26.114;2023-05-13T04:24:30;101279.59;;;9.13;100.00
63190;BME280;49286;44.460;26.114;2023-05-13T04:26:55;101183.75;;;8.75;100.00
63190;BME280;49286;44.460;26.114;2023-05-13T04:29:21;101235.09;;;9.13;100.00
63190;BME280;49286;44.460;26.114;2023-05-13T04:31:46;101149.50;;;8.63;100.00
63190;BME280;49286;44.460;26.114;2023-05-13T04:34:12;101175.22;;;8.84;100.00
63190;BME280;49286;44.460;26.114;2023-05-13T04:36:37;101171.81;;;8.88;100.00
63190;BME280;49286;44.460;26.114;2023-05-13T04:39:03;101161.22;;;8.80;100.00
63190;BME280;49286;44.460;26.114;2023-05-13T04:41:28;101260.47;;;9.62;100.00
63190;BME280;49286;44.460;26.114;2023-05-13T04:43:53;101294.72;;;9.73;100.00
63190;BME280;49286;44.460;26.114;2023-05-13T04:46:19;101301.41;;;9.56;100.00
63190;BME280;49286;44.460;26.114;2023-05-13T04:48:45;101303.69;;;9.87;100.00
63190;BME280;49286;44.460;26.114;2023-05-13T04:51:14;101276.56;;;9.84;100.00
63190;BME280;49286;44.460;26.114;2023-05-13T04:53:39;101216.72;;;9.58;100.00
63190;BME280;49286;44.460;26.114;2023-05-13T04:56:05;101188.03;;;9.17;100.00
63190;BME280;49286;44.460;26.114;2023-05-13T04:58:31;101213.69;;;9.35;100.00
63190;BME280;49286;44.460;26.114;2023-05-13T05:00:56;101272.66;;;9.62;100.00
63190;BME280;49286;44.460;26.114;2023-05-13T05:03:22;101196.06;;;9.25;100.00
63190;BME280;49286;44.460;26.114;2023-05-13T05:05:48;101185.88;;;9.43;100.00
63190;BME280;49286;44.460;26.114;2023-05-13T05:08:14;101210.72;;;9.65;100.00
63190;BME280;49286;44.460;26.114;2023-05-13T05:10:40;101212.69;;;9.80;100.00
63190;BME280;49286;44.460;26.114;2023-05-13T05:13:05;101244.97;;;10.31;100.00
63190;BME280;49286;44.460;26.114;2023-05-13T05:15:31;101360.47;;;10.95;100.00
63190;BME280;49286;44.460;26.114;2023-05-13T05:17:56;101358.72;;;10.95;100.00
63190;BME280;49286;44.460;26.114;2023-05-13T05:20:22;101365.50;;;10.78;100.00
63190;BME280;49286;44.460;26.114;2023-05-13T05:22:48;101255.69;;;10.46;100.00
63190;BME280;49286;44.460;26.114;2023-05-13T05:25:14;101374.13;;;11.35;100.00
63190;BME280;49286;44.460;26.114;2023-05-13T05:27:40;101397.22;;;11.59;100.00
63190;BME280;49286;44.460;26.114;2023-05-13T05:30:08;101291.16;;;10.81;100.00
63190;BME280;49286;44.460;26.114;2023-05-13T05:32:34;101386.41;;;11.37;100.00
63190;BME280;49286;44.460;26.114;2023-05-13T05:35:00;101274.94;;;11.12;100.00
63190;BME280;49286;44.460;26.114;2023-05-13T05:37:28;101266.47;;;11.38;100.00
63190;BME280;49286;44.460;26.114;2023-05-13T05:39:54;101300.66;;;11.43;100.00
63190;BME280;49286;44.460;26.114;2023-05-13T05:42:20;101394.34;;;12.15;100.00
63190;BME280;49286;44.460;26.114;2023-05-13T05:44:45;101289.19;;;11.36;100.00
63190;BME280;49286;44.460;26.114;2023-05-13T05:47:11;101298.28;;;11.70;100.00
63190;BME280;49286;44.460;26.114;2023-05-13T05:49:37;101283.69;;;11.98;100.00
63190;BME280;49286;44.460;26.114;2023-05-13T05:52:02;101311.94;;;12.21;100.00
63190;BME280;49286;44.460;26.114;2023-05-13T05:54:28;101299.91;;;12.55;100.00
63190;BME280;49286;44.460;26.114;2023-05-13T05:56:53;101406.53;;;13.26;100.00
63190;BME280;49286;44.460;26.114;2023-05-13T05:59:19;101429.59;;;13.67;100.00
63190;BME280;49286;44.460;26.114;2023-05-13T06:01:44;101391.78;;;13.76;100.00
63190;BME280;49286;44.460;26.114;2023-05-13T06:04:10;101417.41;;;14.22;100.00
63190;BME280;49286;44.460;26.114;2023-05-13T06:06:35;101371.59;;;13.84;100.00
63190;BME280;49286;44.460;26.114;2023-05-13T06:09:01;101399.75;;;14.02;100.00
63190;BME280;49286;44.460;26.114;2023-05-13T06:11:27;101323.22;;;14.02;100.00
63190;BME280;49286;44.460;26.114;2023-05-13T06:13:52;101425.31;;;14.20;100.00
63190;BME280;49286;44.460;26.114;2023-05-13T06:16:18;101429.47;;;13.38;100.00
63190;BME280;49286;44.460;26.114;2023-05-13T06:18:43;101320.25;;;12.87;100.00
63190;BME280;49286;44.460;26.114;2023-05-13T06:21:09;101324.41;;;12.46;100.00
63190;BME280;49286;44.460;26.114;2023-05-13T06:23:35;101317.41;;;12.55;100.00
63190;BME280;49286;44.460;26.114;2023-05-13T06:26:00;101415.16;;;13.01;100.00
63190;BME280;49286;44.460;26.114;2023-05-13T06:28:26;101331.56;;;12.64;100.00
63190;BME280;49286;44.460;26.114;2023-05-13T06:30:51;101431.94;;;13.14;100.00
63190;BME280;49286;44.460;26.114;2023-05-13T06:33:18;101376.38;;;12.75;100.00
63190;BME280;49286;44.460;26.114;2023-05-13T06:35:44;101410.75;;;12.95;100.00
63190;BME280;49286;44.460;26.114;2023-05-13T06:38:14;101333.47;;;12.95;100.00
63190;BME280;49286;44.460;26.114;2023-05-13T06:40:42;101314.94;;;12.78;100.00
63190;BME280;49286;44.460;26.114;2023-05-13T06:43:08;101440.84;;;13.28;100.00
63190;BME280;49286;44.460;26.114;2023-05-13T06:45:34;101407.28;;;13.04;100.00
63190;BME280;49286;44.460;26.114;2023-05-13T06:47:59;101350.22;;;13.09;100.00
63190;BME280;49286;44.460;26.114;2023-05-13T06:50:25;101363.50;;;13.32;100.00
63190;BME280;49286;44.460;26.114;2023-05-13T06:52:50;101348.63;;;13.40;100.00
63190;BME280;49286;44.460;26.114;2023-05-13T06:55:15;101435.00;;;14.07;100.00
63190;BME280;49286;44.460;26.114;2023-05-13T06:57:43;101430.63;;;14.22;100.00
63190;BME280;49286;44.460;26.114;2023-05-13T07:00:14;101335.50;;;13.62;95.51
63190;BME280;49286;44.460;26.114;2023-05-13T07:02:40;101449.09;;;14.29;94.62
63190;BME280;49286;44.460;26.114;2023-05-13T07:05:07;101429.75;;;14.29;90.12
63190;BME280;49286;44.460;26.114;2023-05-13T07:07:32;101319.69;;;13.74;86.60
63190;BME280;49286;44.460;26.114;2023-05-13T07:09:58;101441.19;;;14.82;95.10
63190;BME280;49286;44.460;26.114;2023-05-13T07:12:23;101363.72;;;14.46;84.72
63190;BME280;49286;44.460;26.114;2023-05-13T07:14:49;101328.50;;;14.02;79.38
63190;BME280;49286;44.460;26.114;2023-05-13T07:17:15;101338.22;;;14.31;81.90
63190;BME280;49286;44.460;26.114;2023-05-13T07:19:41;101325.88;;;14.62;86.01
63190;BME280;49286;44.460;26.114;2023-05-13T07:22:06;101344.28;;;15.04;93.83
63190;BME280;49286;44.460;26.114;2023-05-13T07:24:32;101318.78;;;14.76;81.87
63190;BME280;49286;44.460;26.114;2023-05-13T07:26:57;101433.16;;;15.37;89.54
63190;BME280;49286;44.460;26.114;2023-05-13T07:29:23;101427.75;;;15.74;85.82
63190;BME280;49286;44.460;26.114;2023-05-13T07:31:48;101326.56;;;15.24;86.38
63190;BME280;49286;44.460;26.114;2023-05-13T07:34:14;101425.88;;;15.94;84.55
63190;BME280;49286;44.460;26.114;2023-05-13T07:36:40;101418.00;;;15.82;78.22
63190;BME280;49286;44.460;26.114;2023-05-13T07:39:05;101373.25;;;15.36;80.94
63190;BME280;49286;44.460;26.114;2023-05-13T07:41:33;101426.94;;;15.49;77.53
63190;BME280;49286;44.460;26.114;2023-05-13T07:43:58;101315.75;;;15.73;79.32
63190;BME280;49286;44.460;26.114;2023-05-13T07:46:24;101360.94;;;16.57;75.38
63190;BME280;49286;44.460;26.114;2023-05-13T07:48:49;101327.28;;;16.68;73.60
63190;BME280;49286;44.460;26.114;2023-05-13T07:51:15;101292.84;;;15.63;73.05
63190;BME280;49286;44.460;26.114;2023-05-13T07:53:42;101332.13;;;16.21;73.98
63190;BME280;49286;44.460;26.114;2023-05-13T07:56:09;101306.78;;;15.93;78.33
63190;BME280;49286;44.460;26.114;2023-05-13T07:58:35;101381.63;;;16.16;83.01
63190;BME280;49286;44.460;26.114;2023-05-13T08:01:01;101295.25;;;16.00;80.41
63190;BME280;49286;44.460;26.114;2023-05-13T08:03:28;101296.66;;;16.39;81.06
63190;BME280;49286;44.460;26.114;2023-05-13T08:05:53;101401.81;;;17.24;85.75
63190;BME280;49286;44.460;26.114;2023-05-13T08:08:19;101412.63;;;17.04;68.42
63190;BME280;49286;44.460;26.114;2023-05-13T08:10:44;101418.06;;;16.93;68.25
63190;BME280;49286;44.460;26.114;2023-05-13T08:13:10;101410.25;;;16.75;69.00
63190;BME280;49286;44.460;26.114;2023-05-13T08:15:36;101325.19;;;16.05;66.71
63190;BME280;49286;44.460;26.114;2023-05-13T08:18:02;101404.53;;;17.18;68.13
63190;BME280;49286;44.460;26.114;2023-05-13T08:20:28;101316.44;;;16.01;67.51
63190;BME280;49286;44.460;26.114;2023-05-13T08:22:57;101299.72;;;15.92;68.27
63190;BME280;49286;44.460;26.114;2023-05-13T08:25:23;101405.75;;;16.87;61.48
63190;BME280;49286;44.460;26.114;2023-05-13T08:27:48;101416.75;;;17.33;60.48
63190;BME280;49286;44.460;26.114;2023-05-13T08:30:14;101311.56;;;16.51;53.50
63190;BME280;49286;44.460;26.114;2023-05-13T08:32:40;101330.91;;;16.59;48.24
63190;BME280;49286;44.460;26.114;2023-05-13T08:35:06;101408.38;;;16.91;48.13
63190;BME280;49286;44.460;26.114;2023-05-13T08:37:31;101413.78;;;16.74;49.97
63190;BME280;49286;44.460;26.114;2023-05-13T08:39:57;101408.59;;;16.61;46.87
63190;BME280;49286;44.460;26.114;2023-05-13T08:42:27;101283.38;;;15.20;48.30
63190;BME280;49286;44.460;26.114;2023-05-13T08:44:57;101336.91;;;15.72;48.82
63190;BME280;49286;44.460;26.114;2023-05-13T08:47:33;101426.03;;;15.57;46.87
63190;BME280;49286;44.460;26.114;2023-05-13T08:50:01;101297.56;;;15.04;47.98
63190;BME280;49286;44.460;26.114;2023-05-13T08:52:26;101425.84;;;16.00;47.79
63190;BME280;49286;44.460;26.114;2023-05-13T08:54:52;101367.75;;;15.70;47.95
63190;BME280;49286;44.460;26.114;2023-05-13T08:57:18;101316.78;;;15.43;48.23
63190;BME280;49286;44.460;26.114;2023-05-13T08:59:43;101422.47;;;15.63;49.37
63190;BME280;49286;44.460;26.114;2023-05-13T09:02:10;101415.41;;;15.73;48.87
63190;BME280;49286;44.460;26.114;2023-05-13T09:04:38;101429.38;;;16.02;48.48
63190;BME280;49286;44.460;26.114;2023-05-13T09:07:06;101345.78;;;15.60;48.96
63190;BME280;49286;44.460;26.114;2023-05-13T09:09:32;101419.69;;;16.01;48.80
63190;BME280;49286;44.460;26.114;2023-05-13T09:11:58;101312.44;;;15.30;49.73
63190;BME280;49286;44.460;26.114;2023-05-13T09:14:28;101413.56;;;15.89;50.42
63190;BME280;49286;44.460;26.114;2023-05-13T09:16:55;101323.94;;;15.18;50.20
63190;BME280;49286;44.460;26.114;2023-05-13T09:19:23;101331.91;;;15.13;50.10
63190;BME280;49286;44.460;26.114;2023-05-13T09:21:49;101382.78;;;15.65;50.67
63190;BME280;49286;44.460;26.114;2023-05-13T09:24:15;101295.78;;;15.11;50.90
63190;BME280;49286;44.460;26.114;2023-05-13T09:26:46;101311.50;;;15.43;50.18
63190;BME280;49286;44.460;26.114;2023-05-13T09:29:26;101273.63;;;15.29;50.04
63190;BME280;49286;44.460;26.114;2023-05-13T09:31:59;101425.94;;;15.82;50.43
63190;BME280;49286;44.460;26.114;2023-05-13T09:34:29;101426.81;;;15.84;50.32
63190;BME280;49286;44.460;26.114;2023-05-13T09:37:05;101409.13;;;15.95;49.69
63190;BME280;49286;44.460;26.114;2023-05-13T09:39:34;101366.03;;;15.62;50.62
63190;BME280;49286;44.460;26.114;2023-05-13T09:42:02;101374.81;;;15.77;50.99
63190;BME280;49286;44.460;26.114;2023-05-13T09:44:28;101307.69;;;15.89;51.38
63190;BME280;49286;44.460;26.114;2023-05-13T09:46:54;101307.25;;;16.39;50.97
63190;BME280;49286;44.460;26.114;2023-05-13T09:49:25;101401.16;;;17.05;51.02
63190;BME280;49286;44.460;26.114;2023-05-13T09:51:50;101301.97;;;16.36;52.06
63190;BME280;49286;44.460;26.114;2023-05-13T09:54:16;101395.13;;;16.91;52.70
63190;BME280;49286;44.460;26.114;2023-05-13T09:56:42;101386.09;;;16.07;51.23
63190;BME280;49286;44.460;26.114;2023-05-13T09:59:09;101326.25;;;15.82;52.45
63190;BME280;49286;44.460;26.114;2023-05-13T10:01:34;101344.88;;;15.64;52.88
63190;BME280;49286;44.460;26.114;2023-05-13T10:04:02;101397.53;;;16.13;52.68
63190;BME280;49286;44.460;26.114;2023-05-13T10:06:30;101312.06;;;15.93;52.36
63190;BME280;49286;44.460;26.114;2023-05-13T10:08:57;101324.25;;;16.14;51.21
63190;BME280;49286;44.460;26.114;2023-05-13T10:11:24;101317.34;;;15.96;50.85
63190;BME280;49286;44.460;26.114;2023-05-13T10:13:58;101414.78;;;16.62;52.81
63190;BME280;49286;44.460;26.114;2023-05-13T10:16:24;101330.03;;;16.57;50.98
63190;BME280;49286;44.460;26.114;2023-05-13T10:18:51;101415.75;;;16.53;50.14
63190;BME280;49286;44.460;26.114;2023-05-13T10:21:20;101397.84;;;16.83;51.80
63190;BME280;49286;44.460;26.114;2023-05-13T10:23:46;101407.69;;;16.64;50.43
63190;BME280;49286;44.460;26.114;2023-05-13T10:26:14;101316.53;;;15.88;48.65
63190;BME280;49286;44.460;26.114;2023-05-13T10:28:42;101400.66;;;16.63;48.41
63190;BME280;49286;44.460;26.114;2023-05-13T10:31:07;101351.53;;;16.23;49.18
63190;BME280;49286;44.460;26.114;2023-05-13T10:33:33;101375.06;;;16.57;47.00
63190;BME280;49286;44.460;26.114;2023-05-13T10:44:31;101420.63;;;16.99;47.97
63190;BME280;49286;44.460;26.114;2023-05-13T10:46:57;101308.56;;;16.88;47.58
63190;BME280;49286;44.460;26.114;2023-05-13T10:49:22;101357.94;;;18.25;47.81
63190;BME280;49286;44.460;26.114;2023-05-13T10:51:51;101401.78;;;17.98;48.46
63190;BME280;49286;44.460;26.114;2023-05-13T10:54:18;101414.53;;;18.32;46.02
63190;BME280;49286;44.460;26.114;2023-05-13T10:56:44;101304.84;;;18.70;48.58
63190;BME280;49286;44.460;26.114;2023-05-13T10:59:10;101398.06;;;19.56;47.28
63190;BME280;49286;44.460;26.114;2023-05-13T11:01:38;101401.31;;;18.27;43.79
63190;BME280;49286;44.460;26.114;2023-05-13T11:04:12;101318.22;;;18.67;45.32
63190;BME280;49286;44.460;26.114;2023-05-13T11:06:43;101288.25;;;18.09;42.86
63190;BME280;49286;44.460;26.114;2023-05-13T11:12:02;101287.75;;;17.86;43.44
63190;BME280;49286;44.460;26.114;2023-05-13T11:14:31;101394.59;;;18.58;44.14
63190;BME280;49286;44.460;26.114;2023-05-13T11:19:30;101405.41;;;18.48;45.60
63190;BME280;49286;44.460;26.114;2023-05-13T11:22:04;101391.16;;;18.52;42.48
63190;BME280;49286;44.460;26.114;2023-05-13T11:24:32;101416.31;;;18.30;44.39
63190;BME280;49286;44.460;26.114;2023-05-13T11:27:14;101417.75;;;17.22;41.71
63190;BME280;49286;44.460;26.114;2023-05-13T11:29:50;101388.66;;;17.16;41.55
63190;BME280;49286;44.460;26.114;2023-05-13T11:35:26;101290.47;;;17.21;42.39
63190;BME280;49286;44.460;26.114;2023-05-13T11:37:53;101348.91;;;17.80;44.91
63190;BME280;49286;44.460;26.114;2023-05-13T11:40:29;101394.03;;;17.81;43.58
63190;BME280;49286;44.460;26.114;2023-05-13T11:42:55;101392.16;;;17.88;42.69
63190;BME280;49286;44.460;26.114;2023-05-13T11:45:22;101402.66;;;17.96;44.22
63190;BME280;49286;44.460;26.114;2023-05-13T11:47:48;101394.88;;;17.83;42.88
63190;BME280;49286;44.460;26.114;2023-05-13T11:50:21;101395.94;;;17.70;42.92
63190;BME280;49286;44.460;26.114;2023-05-13T11:52:54;101308.50;;;16.90;44.28
63190;BME280;49286;44.460;26.114;2023-05-13T11:55:30;101273.94;;;16.99;43.57
63190;BME280;49286;44.460;26.114;2023-05-13T11:57:56;101297.09;;;16.84;44.19
63190;BME280;49286;44.460;26.114;2023-05-13T12:02:52;101385.78;;;18.03;42.60
63190;BME280;49286;44.460;26.114;2023-05-13T12:05:18;101325.94;;;17.12;40.72
63190;BME280;49286;44.460;26.114;2023-05-13T12:07:43;101409.06;;;17.79;41.25
63190;BME280;49286;44.460;26.114;2023-05-13T12:10:09;101399.41;;;17.75;42.43
63190;BME280;49286;44.460;26.114;2023-05-13T12:12:37;101385.34;;;17.67;44.86
63190;BME280;49286;44.460;26.114;2023-05-13T12:15:05;101300.06;;;17.29;43.72
63190;BME280;49286;44.460;26.114;2023-05-13T12:17:31;101289.84;;;17.65;45.37
63190;BME280;49286;44.460;26.114;2023-05-13T12:22:53;101404.09;;;18.20;43.29
63190;BME280;49286;44.460;26.114;2023-05-13T12:27:57;101381.47;;;18.48;48.23
63190;BME280;49286;44.460;26.114;2023-05-13T12:30:23;101296.38;;;18.00;43.72
63190;BME280;49286;44.460;26.114;2023-05-13T12:32:48;101304.38;;;17.37;42.14
63190;BME280;49286;44.460;26.114;2023-05-13T12:35:14;101395.28;;;18.16;43.57
63190;BME280;49286;44.460;26.114;2023-05-13T12:37:40;101383.78;;;18.14;42.59
63190;BME280;49286;44.460;26.114;2023-05-13T12:40:12;101369.66;;;18.13;44.46
63190;BME280;49286;44.460;26.114;2023-05-13T12:42:43;101282.38;;;17.90;48.92
63190;BME280;49286;44.460;26.114;2023-05-13T12:45:09;101271.31;;;17.61;42.80
63190;BME280;49286;44.460;26.114;2023-05-13T12:47:51;101391.53;;;18.31;44.20
63190;BME280;49286;44.460;26.114;2023-05-13T12:50:17;101379.91;;;18.35;44.18
63190;BME280;49286;44.460;26.114;2023-05-13T12:52:43;101353.06;;;17.99;46.34
63190;BME280;49286;44.460;26.114;2023-05-13T12:55:08;101382.47;;;17.84;43.71
63190;BME280;49286;44.460;26.114;2023-05-13T12:57:34;101359.94;;;18.11;44.27
63190;BME280;49286;44.460;26.114;2023-05-13T12:59:59;101368.22;;;17.91;45.83
63190;BME280;49286;44.460;26.114;2023-05-13T13:02:25;101372.09;;;18.27;48.41
63190;BME280;49286;44.460;26.114;2023-05-13T13:04:51;101360.00;;;17.44;45.47
63190;BME280;49286;44.460;26.114;2023-05-13T13:07:16;101361.22;;;17.87;46.30
63190;BME280;49286;44.460;26.114;2023-05-13T13:09:42;101269.75;;;16.78;46.60